^^
Grace C. Lehan Memorial Weather Station Historical Data
Daily Summary for March 20, 2021 Units:  English    Metric   Both
Daily Weekly Monthly Yearly
  High: Low: Average:
Temperature: 82.4 °F 71.7 °F 76.9 °F
Dew Point: 73.9 °F 68.7 °F 71.5 °F
Humidity: 92% 72% 84%
Wind Speed: 4mph 0mph 0.2mph
Wind Gust: 10mph - -
Wind- - SSW
Pressure: 29.86 in 29.80 in -
Precipitation: 0.00 in    
 
 
Tabular Data for March 20, 2021
Time Temperature Dew Point Pressure Wind Wind Speed Wind Gust Humidity Rainfall Rate (Hourly) solar
00:04 75.3 °F 71.1 °F 29.82 in WSW 1.9 mph 10 mph 87% 0.00 in 0 W/m2
00:09 75.2 °F 71 °F 29.82 in WSW 0.5 mph 6 mph 87% 0.00 in 0 W/m2
00:14 75.1 °F 71 °F 29.82 in WSW 0.2 mph 6 mph 87% 0.00 in 0 W/m2
00:19 75 °F 70.9 °F 29.82 in West 0.1 mph 6 mph 87% 0.00 in 0 W/m2
00:24 74.9 °F 71 °F 29.82 in Calm   6 mph 87.8% 0.00 in 0 W/m2
00:29 74.8 °F 71 °F 29.82 in West 0.4 mph 6 mph 88% 0.00 in 0 W/m2
00:34 74.7 °F 70.9 °F 29.82 in West 0.1 mph 6 mph 88% 0.00 in 0 W/m2
00:39 74.6 °F 70.8 °F 29.82 in WSW 0.5 mph 5 mph 88% 0.00 in 0 W/m2
00:44 74.5 °F 70.8 °F 29.82 in Calm   5 mph 88% 0.00 in 0 W/m2
00:49 74.5 °F 70.7 °F 29.82 in WSW 0.3 mph 5 mph 88% 0.00 in 0 W/m2
00:54 74.4 °F 70.6 °F 29.82 in Calm   5 mph 88% 0.00 in 0 W/m2
00:59 74.3 °F 70.5 °F 29.82 in Calm   5 mph 88% 0.00 in 0 W/m2
01:04 74.2 °F 70.6 °F 29.82 in WSW 0.1 mph 5 mph 88.6% 0.00 in 0 W/m2
01:09 74.1 °F 70.7 °F 29.82 in Calm   2 mph 89% 0.00 in 0 W/m2
01:14 74 °F 70.6 °F 29.82 in Calm   2 mph 89% 0.00 in 0 W/m2
01:19 74 °F 70.5 °F 29.81 in WSW 0.1 mph 2 mph 89% 0.00 in 0 W/m2
01:24 73.9 °F 70.5 °F 29.81 in WSW 0.2 mph 3 mph 89% 0.00 in 0 W/m2
01:29 73.8 °F 70.4 °F 29.82 in WSW 0.2 mph 3 mph 89% 0.00 in 0 W/m2
01:34 73.7 °F 70.3 °F 29.82 in Calm   3 mph 89% 0.00 in 0 W/m2
01:39 73.6 °F 70.2 °F 29.82 in Calm     89% 0.00 in 0 W/m2
01:44 73.5 °F 70.1 °F 29.81 in WSW 0.1 mph 1 mph 89% 0.00 in 0 W/m2
01:49 73.4 °F 70 °F 29.82 in WSW 0.2 mph 3 mph 89% 0.00 in 0 W/m2
01:54 73.4 °F 69.9 °F 29.82 in WSW 0.2 mph 4 mph 89% 0.00 in 0 W/m2
01:59 73.3 °F 69.9 °F 29.81 in WSW 0.3 mph 4 mph 89% 0.00 in 0 W/m2
02:04 73.3 °F 69.8 °F 29.81 in Calm   4 mph 89% 0.00 in 0 W/m2
02:09 73.2 °F 69.8 °F 29.81 in WSW 0.4 mph 4 mph 89% 0.00 in 0 W/m2
02:14 73.2 °F 69.8 °F 29.81 in WSW 0.3 mph 5 mph 89% 0.00 in 0 W/m2
02:19 73.1 °F 69.7 °F 29.81 in WSW 0.6 mph 5 mph 89% 0.00 in 0 W/m2
02:24 73.1 °F 69.7 °F 29.81 in WSW 0.5 mph 6 mph 89% 0.00 in 0 W/m2
02:29 73.1 °F 69.7 °F 29.81 in Calm   6 mph 89% 0.00 in 0 W/m2
02:34 73 °F 69.6 °F 29.81 in WSW 0.1 mph 6 mph 89% 0.00 in 0 W/m2
02:39 73 °F 69.6 °F 29.81 in Calm   3 mph 89% 0.00 in 0 W/m2
02:44 73 °F 69.6 °F 29.81 in Calm   3 mph 89% 0.00 in 0 W/m2
02:49 73 °F 69.6 °F 29.81 in Calm   3 mph 89% 0.00 in 0 W/m2
02:54 73 °F 69.5 °F 29.81 in Calm   3 mph 89% 0.00 in 0 W/m2
02:59 72.9 °F 69.5 °F 29.81 in WSW 0.2 mph 3 mph 89% 0.00 in 0 W/m2
03:04 72.8 °F 69.4 °F 29.81 in WSW 0.1 mph 3 mph 89% 0.00 in 0 W/m2
03:09 72.8 °F 69.4 °F 29.81 in WSW 0.4 mph 3 mph 89% 0.00 in 0 W/m2
03:14 72.8 °F 69.4 °F 29.81 in WSW 0.3 mph 3 mph 89% 0.00 in 0 W/m2
03:19 72.8 °F 69.4 °F 29.81 in Calm   3 mph 89% 0.00 in 0 W/m2
03:24 72.8 °F 69.4 °F 29.81 in Calm   3 mph 89% 0.00 in 0 W/m2
03:29 72.8 °F 69.4 °F 29.82 in Calm   3 mph 89% 0.00 in 0 W/m2
03:34 72.8 °F 69.4 °F 29.82 in Calm   3 mph 89% 0.00 in 0 W/m2
03:39 72.8 °F 69.4 °F 29.82 in Calm     89% 0.00 in 0 W/m2
03:44 72.7 °F 69.3 °F 29.82 in Calm     89% 0.00 in 0 W/m2
03:49 72.7 °F 69.2 °F 29.81 in Calm     89% 0.00 in 0 W/m2
03:54 72.6 °F 69.3 °F 29.81 in Calm     89.3% 0.00 in 0 W/m2
03:59 72.6 °F 69.4 °F 29.81 in Calm     89.7% 0.00 in 0 W/m2
04:09 72.5 °F 69.1 °F 29.81 in Calm     89% 0.00 in 0 W/m2
04:14 72.4 °F 69 °F 29.81 in Calm     89% 0.00 in 0 W/m2
04:19 72.4 °F 69 °F 29.81 in Calm     89% 0.00 in 0 W/m2
04:24 72.4 °F 69.3 °F 29.81 in Calm     89.9% 0.00 in 0 W/m2
04:29 72.4 °F 69.3 °F 29.81 in WSW 0.2 mph 3 mph 90% 0.00 in 0 W/m2
04:34 72.4 °F 69.3 °F 29.82 in Calm   3 mph 90% 0.00 in 0 W/m2
04:39 72.4 °F 69.3 °F 29.81 in WSW 0.2 mph 2 mph 90% 0.00 in 0 W/m2
04:44 72.4 °F 69.3 °F 29.82 in Calm   2 mph 90% 0.00 in 0 W/m2
04:49 72.3 °F 69.2 °F 29.82 in Calm   2 mph 90% 0.00 in 0 W/m2
04:54 72.3 °F 69.2 °F 29.82 in WSW 0.1 mph 2 mph 89.8% 0.00 in 0 W/m2
04:59 72.4 °F 69 °F 29.82 in Calm   2 mph 89.2% 0.00 in 0 W/m2
05:04 72.4 °F 69 °F 29.82 in Calm   2 mph 89% 0.00 in 0 W/m2
05:09 72.3 °F 68.9 °F 29.82 in WSW 0.1 mph 3 mph 89% 0.00 in 0 W/m2
05:14 72.3 °F 68.9 °F 29.82 in Calm   3 mph 89% 0.00 in 0 W/m2
05:19 72.3 °F 69.1 °F 29.82 in Calm   3 mph 89.6% 0.00 in 0 W/m2
05:24 72.2 °F 69.1 °F 29.82 in Calm   3 mph 90% 0.00 in 0 W/m2
05:29 72.2 °F 69.1 °F 29.82 in Calm   3 mph 90% 0.00 in 0 W/m2
05:34 72.1 °F 69 °F 29.82 in Calm   3 mph 90% 0.00 in 0 W/m2
05:39 72.1 °F 69 °F 29.82 in Calm     90% 0.00 in 0 W/m2
05:44 72 °F 68.9 °F 29.82 in Calm     90% 0.00 in 0 W/m2
05:49 72 °F 68.9 °F 29.82 in Calm     90% 0.00 in 0 W/m2
05:54 71.9 °F 68.8 °F 29.82 in Calm     90% 0.00 in 0 W/m2
05:59 71.9 °F 68.8 °F 29.82 in Calm     90% 0.00 in 0 W/m2
06:04 71.8 °F 68.7 °F 29.82 in WSW 0.3 mph 3 mph 90% 0.00 in 0 W/m2
06:09 71.8 °F 68.8 °F 29.82 in Calm   3 mph 90.2% 0.00 in 7 W/m2
06:14 71.8 °F 69 °F 29.82 in Calm   3 mph 91% 0.00 in 12 W/m2
06:19 71.7 °F 69 °F 29.82 in Calm   3 mph 91% 0.00 in 19 W/m2
06:24 71.7 °F 69 °F 29.82 in Calm   3 mph 91% 0.00 in 23 W/m2
06:29 71.8 °F 69 °F 29.82 in Calm   3 mph 91% 0.00 in 23 W/m2
06:34 71.9 °F 69.3 °F 29.82 in Calm   3 mph 91.4% 0.00 in 47 W/m2
06:39 72.2 °F 69.8 °F 29.83 in Calm     92% 0.00 in 51 W/m2
06:44 72.5 °F 70 °F 29.83 in Calm     92% 0.00 in 35 W/m2
06:49 72.6 °F 70.1 °F 29.83 in Calm     92% 0.00 in 37 W/m2
06:54 72.7 °F 70.3 °F 29.83 in Calm     92% 0.00 in 47 W/m2
06:59 72.8 °F 70.4 °F 29.83 in West 0.3 mph 4 mph 92% 0.00 in 51 W/m2
07:04 72.8 °F 70.2 °F 29.83 in West 1.1 mph 4 mph 91.5% 0.00 in 53 W/m2
07:09 72.9 °F 70.1 °F 29.83 in Calm   4 mph 91% 0.00 in 56 W/m2
07:14 72.9 °F 70 °F 29.83 in Calm   4 mph 90.6% 0.00 in 67 W/m2
07:19 73 °F 69.9 °F 29.83 in West 0.1 mph 4 mph 90% 0.00 in 70 W/m2
07:24 73.1 °F 69.9 °F 29.83 in West 0.1 mph 4 mph 89.6% 0.00 in 79 W/m2
07:29 73.3 °F 69.9 °F 29.83 in West 0.5 mph 5 mph 89.2% 0.00 in 93 W/m2
07:34 73.4 °F 70 °F 29.83 in West 0.1 mph 5 mph 89% 0.00 in 105 W/m2
07:39 73.6 °F 70.2 °F 29.83 in Calm   2 mph 89% 0.00 in 102 W/m2
07:44 73.9 °F 70.3 °F 29.83 in Calm   2 mph 88.5% 0.00 in 100 W/m2
07:49 74.1 °F 70.3 °F 29.83 in Calm   2 mph 88% 0.00 in 105 W/m2
07:54 74.4 °F 70.4 °F 29.84 in Calm   2 mph 87.3% 0.00 in 111 W/m2
07:59 74.7 °F 70.5 °F 29.84 in West 0.3 mph 3 mph 86.9% 0.00 in 113 W/m2
08:09 75.3 °F 70.6 °F 29.83 in West 0.3 mph 3 mph 85.5% 0.00 in 149 W/m2
08:14 75.5 °F 70.7 °F 29.83 in West 0.4 mph 3 mph 85% 0.00 in 139 W/m2
08:19 75.7 °F 70.6 °F 29.83 in West 0.8 mph 5 mph 84.3% 0.00 in 271 W/m2
08:24 75.9 °F 71 °F 29.83 in West 0.3 mph 5 mph 84.7% 0.00 in 221 W/m2
08:29 76.2 °F 71.1 °F 29.83 in West 0.3 mph 5 mph 84.2% 0.00 in 169 W/m2
08:34 76.4 °F 71.2 °F 29.83 in West 0.3 mph 5 mph 84% 0.00 in 160 W/m2
08:39 76.5 °F 71.3 °F 29.83 in West 0.1 mph 4 mph 84% 0.00 in 116 W/m2
08:44 76.6 °F 71.3 °F 29.84 in West 0.9 mph 5 mph 83.6% 0.00 in 121 W/m2
08:49 76.6 °F 71.2 °F 29.84 in West 0.3 mph 5 mph 83.4% 0.00 in 123 W/m2
08:54 76.6 °F 71.4 °F 29.84 in Calm   5 mph 84% 0.00 in 123 W/m2
08:59 76.7 °F 71.5 °F 29.84 in Calm   5 mph 84% 0.00 in 113 W/m2
09:04 76.6 °F 71.1 °F 29.84 in Calm   5 mph 83.1% 0.00 in 69 W/m2
09:09 76.6 °F 71.1 °F 29.84 in West 0.3 mph 3 mph 83% 0.00 in 100 W/m2
09:14 76.6 °F 71.3 °F 29.84 in Calm   3 mph 83.7% 0.00 in 100 W/m2
09:19 76.6 °F 71.4 °F 29.84 in Calm   3 mph 84% 0.00 in 58 W/m2
09:24 76.6 °F 71.2 °F 29.84 in WNW 0.9 mph 6 mph 83.4% 0.00 in 56 W/m2
09:29 76.5 °F 71.1 °F 29.84 in WNW 0.4 mph 6 mph 83.2% 0.00 in 155 W/m2
09:34 76.5 °F 71.3 °F 29.84 in Calm   6 mph 84% 0.00 in 322 W/m2
09:39 76.9 °F 72 °F 29.84 in Calm   2 mph 84.9% 0.00 in 563 W/m2
09:44 77.6 °F 72.3 °F 29.84 in Calm   2 mph 83.9% 0.00 in 276 W/m2
09:49 78.5 °F 72.7 °F 29.84 in WNW 0.7 mph 4 mph 82.6% 0.00 in 489 W/m2
09:54 79.4 °F 73.1 °F 29.84 in WNW 0.3 mph 4 mph 81.1% 0.00 in 756 W/m2
09:59 80.3 °F 73.2 °F 29.84 in WNW 0.4 mph 4 mph 79.2% 0.00 in 809 W/m2
10:04 80.9 °F 72.7 °F 29.84 in WNW 0.8 mph 6 mph 76.1% 0.00 in 809 W/m2
10:09 81.1 °F 72.7 °F 29.84 in WNW 0.8 mph 6 mph 75.8% 0.00 in 309 W/m2
10:14 80.8 °F 72 °F 29.84 in WNW 0.3 mph 6 mph 74.7% 0.00 in 179 W/m2
10:19 80.4 °F 71.9 °F 29.84 in NW 0.9 mph 6 mph 75.2% 0.00 in 190 W/m2
10:24 80.1 °F 71.6 °F 29.85 in NW 0.3 mph 6 mph 75.4% 0.00 in 178 W/m2
10:29 79.7 °F 71.5 °F 29.85 in NNW 0.4 mph 6 mph 76.1% 0.00 in 381 W/m2
10:34 79.5 °F 71.7 °F 29.85 in NNW 0.6 mph 6 mph 77.1% 0.00 in 381 W/m2
10:39 79.4 °F 71.4 °F 29.85 in Calm   4 mph 76.6% 0.00 in 160 W/m2
10:44 79.4 °F 71.4 °F 29.85 in NE 0.3 mph 5 mph 76.7% 0.00 in 135 W/m2
10:49 79.3 °F 71.4 °F 29.85 in Calm   5 mph 77% 0.00 in 97 W/m2
10:54 79 °F 71.2 °F 29.85 in NE 0.1 mph 5 mph 77% 0.00 in 105 W/m2
10:59 78.7 °F 71 °F 29.86 in NE 0.6 mph 5 mph 77.1% 0.00 in 176 W/m2
11:04 78.5 °F 71.1 °F 29.86 in NE 0.2 mph 5 mph 78.1% 0.00 in 357 W/m2
11:09 78.6 °F 71.6 °F 29.86 in NE 0.9 mph 5 mph 79.2% 0.00 in 374 W/m2
11:14 78.9 °F 71.9 °F 29.86 in Calm   5 mph 79.4% 0.00 in 374 W/m2
11:19 79.2 °F 72.4 °F 29.86 in ENE 0.1 mph 5 mph 79.8% 0.00 in 171 W/m2
11:24 79.3 °F 72 °F 29.86 in NE 0.6 mph 6 mph 78.4% 0.00 in 155 W/m2
11:29 79.3 °F 71.9 °F 29.86 in North 1.6 mph 6 mph 78.1% 0.00 in 151 W/m2
11:34 79.1 °F 72.1 °F 29.86 in NW 1.1 mph 6 mph 79.2% 0.00 in 123 W/m2
11:39 78.9 °F 72.3 °F 29.86 in NW 0.1 mph 6 mph 80.3% 0.00 in 95 W/m2
11:44 78.6 °F 72.6 °F 29.86 in Calm   6 mph 81.8% 0.00 in 58 W/m2
11:49 78.3 °F 72.5 °F 29.86 in Calm   6 mph 82.5% 0.00 in 58 W/m2
11:54 77.9 °F 72.2 °F 29.86 in NW 0.4 mph 6 mph 82.5% 0.00 in 58 W/m2
11:59 77.6 °F 71.9 °F 29.86 in Calm   6 mph 82.7% 0.00 in 69 W/m2
12:00 77.4 °F 71.8 °F 29.86 in Calm   6 mph 83% 0.00 in 69 W/m2
12:09 77.1 °F 71.7 °F 29.85 in NW 0.6 mph 4 mph 83.4% 0.00 in 146 W/m2
12:14 77 °F 71.7 °F 29.85 in Calm   4 mph 83.8% 0.00 in 202 W/m2
12:19 77.1 °F 71.9 °F 29.85 in NW 0.8 mph 4 mph 84% 0.00 in 260 W/m2
12:24 77.3 °F 72.1 °F 29.85 in NNW 1.7 mph 6 mph 84% 0.00 in 334 W/m2
12:29 77.6 °F 72.5 °F 29.85 in NNW 0.2 mph 6 mph 84.1% 0.00 in 392 W/m2
12:34 78.1 °F 72.8 °F 29.85 in NNW 0.9 mph 6 mph 83.7% 0.00 in 392 W/m2
12:39 78.5 °F 72.9 °F 29.85 in NNW 0.2 mph 5 mph 83% 0.00 in 345 W/m2
12:44 79 °F 73.2 °F 29.85 in NNW 0.9 mph 6 mph 82.4% 0.00 in 443 W/m2
12:49 79.4 °F 73.5 °F 29.84 in Calm   6 mph 82.2% 0.00 in 540 W/m2
12:54 79.8 °F 73.4 °F 29.85 in NNW 0.1 mph 6 mph 80.6% 0.00 in 220 W/m2
12:59 80.1 °F 73.4 °F 29.85 in NNW 0.1 mph 6 mph 80.1% 0.00 in 272 W/m2
13:04 80.3 °F 73.5 °F 29.84 in NNW 0.3 mph 6 mph 79.8% 0.00 in 287 W/m2
13:09 80.3 °F 72.7 °F 29.84 in NW 0.9 mph 7 mph 77.6% 0.00 in 302 W/m2
13:14 80.2 °F 72.5 °F 29.84 in North 0.2 mph 7 mph 77.3% 0.00 in 272 W/m2
13:19 80.2 °F 72.9 °F 29.84 in North 0.1 mph 7 mph 78.5% 0.00 in 230 W/m2
13:24 80.1 °F 72.2 °F 29.84 in NE 0.8 mph 7 mph 77% 0.00 in 322 W/m2
13:29 80 °F 72.6 °F 29.84 in ENE 0.1 mph 7 mph 78.3% 0.00 in 274 W/m2
13:34 80.1 °F 73.3 °F 29.84 in ENE 0.2 mph 7 mph 79.8% 0.00 in 366 W/m2
13:39 80.2 °F 72.7 °F 29.84 in NE 1 mph 5 mph 78% 0.00 in 483 W/m2
13:44 80.5 °F 73.3 °F 29.85 in NW 0.5 mph 5 mph 78.5% 0.00 in 494 W/m2
13:49 80.9 °F 73.3 °F 29.85 in WNW 0.5 mph 7 mph 77.6% 0.00 in 508 W/m2
13:54 81.3 °F 72.9 °F 29.84 in NNE 0.4 mph 7 mph 75.6% 0.00 in 682 W/m2
13:59 81.6 °F 73 °F 29.84 in East 0.1 mph 7 mph 75.2% 0.00 in 304 W/m2
14:04 81.8 °F 73.5 °F 29.84 in East 1 mph 7 mph 76% 0.00 in 422 W/m2
14:09 82 °F 73.5 °F 29.84 in ENE 1.8 mph 5 mph 75.5% 0.00 in 666 W/m2
14:14 82.2 °F 73 °F 29.84 in ENE 0.2 mph 5 mph 73.7% 0.00 in 599 W/m2
14:19 82.4 °F 73.4 °F 29.84 in ENE 0.8 mph 5 mph 74.2% 0.00 in 464 W/m2
14:24 82.2 °F 73.2 °F 29.84 in NE 0.7 mph 6 mph 74.3% 0.00 in 392 W/m2
14:29 81.8 °F 73.1 °F 29.84 in NE 0.3 mph 6 mph 74.9% 0.00 in 204 W/m2
14:34 81.5 °F 73.3 °F 29.84 in Calm   6 mph 76% 0.00 in 121 W/m2
14:39 81.4 °F 73.7 °F 29.84 in ENE 0.2 mph 3 mph 77.3% 0.00 in 104 W/m2
14:44 81.2 °F 73.1 °F 29.84 in ENE 0.4 mph 3 mph 76.5% 0.00 in 144 W/m2
14:49 81 °F 73.1 °F 29.84 in ENE 1 mph 6 mph 77% 0.00 in 171 W/m2
14:54 80.8 °F 73 °F 29.84 in ENE 0.6 mph 6 mph 77% 0.00 in 172 W/m2
14:59 80.7 °F 73.2 °F 29.84 in ENE 0.1 mph 6 mph 77.9% 0.00 in 278 W/m2
15:04 80.7 °F 73.4 °F 29.84 in Calm   6 mph 78.4% 0.00 in 315 W/m2
15:09 80.8 °F 73.4 °F 29.84 in Calm     78.1% 0.00 in 281 W/m2
15:14 81 °F 73.5 °F 29.84 in Calm     78% 0.00 in 318 W/m2
15:19 81.1 °F 73.2 °F 29.84 in Calm     77% 0.00 in 264 W/m2
15:24 81.3 °F 73.4 °F 29.84 in ENE 0.4 mph 3 mph 77.1% 0.00 in 265 W/m2
15:29 81.5 °F 73.3 °F 29.85 in ENE 0.3 mph 3 mph 76.4% 0.00 in 250 W/m2
15:34 81.5 °F 72.9 °F 29.85 in Calm   3 mph 75.3% 0.00 in 216 W/m2
15:39 81.5 °F 72.9 °F 29.84 in ENE 0.3 mph 3 mph 75.2% 0.00 in 308 W/m2
15:44 81.6 °F 73 °F 29.84 in ENE 0.3 mph 3 mph 75.3% 0.00 in 304 W/m2
15:49 81.6 °F 72.5 °F 29.84 in Calm   3 mph 74% 0.00 in 376 W/m2
15:54 81.8 °F 72.8 °F 29.84 in ENE 0.2 mph 3 mph 74.5% 0.00 in 374 W/m2
15:59 82 °F 73.3 °F 29.83 in ENE 0.2 mph 3 mph 74.9% 0.00 in 371 W/m2
16:00 82.2 °F 73.9 °F 29.83 in ENE 4 mph 4 mph 76% 0.00 in 232 W/m2
16:09 82.2 °F 72.3 °F 29.83 in ENE 0.1 mph 3 mph 72% 0.00 in 241 W/m2
16:14 82.1 °F 72.4 °F 29.83 in ENE 0.4 mph 3 mph 72.5% 0.00 in 162 W/m2
16:19 82.1 °F 72.6 °F 29.83 in ENE 0.2 mph 3 mph 73% 0.00 in 100 W/m2
16:24 81.9 °F 72.3 °F 29.83 in Calm   3 mph 72.6% 0.00 in 91 W/m2
16:29 81.8 °F 72.9 °F 29.82 in ENE 0.1 mph 3 mph 74.5% 0.00 in 107 W/m2
16:34 81.6 °F 72.4 °F 29.82 in ENE 0.4 mph 3 mph 73.7% 0.00 in 121 W/m2
16:39 81.4 °F 72.3 °F 29.82 in Calm   2 mph 74% 0.00 in 116 W/m2
16:44 81.4 °F 72.4 °F 29.82 in ENE 0.4 mph 3 mph 74.2% 0.00 in 155 W/m2
16:49 81.4 °F 72.4 °F 29.82 in ENE 0.2 mph 4 mph 74.3% 0.00 in 169 W/m2
16:54 81.5 °F 72 °F 29.82 in ENE 0.2 mph 4 mph 73% 0.00 in 109 W/m2
16:59 81.7 °F 72 °F 29.81 in NE 1.3 mph 8 mph 72.5% 0.00 in 81 W/m2
17:04 81.8 °F 72.1 °F 29.81 in East 0.9 mph 8 mph 72.4% 0.00 in 62 W/m2
17:09 81.9 °F 72.1 °F 29.80 in ENE 2.8 mph 8 mph 72.3% 0.00 in 91 W/m2
17:14 81.8 °F 72.5 °F 29.81 in NE 0.5 mph 8 mph 73.5% 0.00 in 91 W/m2
17:19 81.7 °F 72.8 °F 29.81 in NE 0.6 mph 8 mph 74.5% 0.00 in 93 W/m2
17:24 81.6 °F 73 °F 29.81 in NE 0.1 mph 8 mph 75.2% 0.00 in 86 W/m2
17:29 81.5 °F 73 °F 29.81 in North 0.5 mph 8 mph 75.5% 0.00 in 62 W/m2
17:34 81.4 °F 72.9 °F 29.81 in NNW 0.6 mph 8 mph 75.6% 0.00 in 33 W/m2
17:39 81.2 °F 72.9 °F 29.81 in NNW 0.4 mph 4 mph 76% 0.00 in 42 W/m2
17:44 81 °F 72.8 °F 29.81 in NNW 0.3 mph 4 mph 76.1% 0.00 in 63 W/m2
17:49 80.9 °F 73 °F 29.81 in NNW 0.2 mph 4 mph 77.1% 0.00 in 76 W/m2
17:54 80.9 °F 73.4 °F 29.81 in NNW 0.3 mph 4 mph 78% 0.00 in 77 W/m2
17:59 80.8 °F 73.4 °F 29.81 in NNW 0.1 mph 4 mph 78.2% 0.00 in 51 W/m2
18:04 80.9 °F 73.8 °F 29.82 in Calm   4 mph 79% 0.00 in 39 W/m2
18:09 80.9 °F 73.6 °F 29.82 in NNW 0.3 mph 2 mph 78.6% 0.00 in 25 W/m2
18:14 80.8 °F 73.3 °F 29.82 in NNW 0.1 mph 2 mph 78.2% 0.00 in 25 W/m2
18:19 80.6 °F 73 °F 29.82 in NNW 0.2 mph 2 mph 77.6% 0.00 in 25 W/m2
18:24 80.5 °F 72.8 °F 29.82 in Calm   2 mph 77.5% 0.00 in 30 W/m2
18:29 80.4 °F 72.9 °F 29.82 in Calm   2 mph 78% 0.00 in 30 W/m2
18:34 80.3 °F 72.7 °F 29.82 in Calm   2 mph 77.6% 0.00 in 28 W/m2
18:39 80.2 °F 72.5 °F 29.82 in Calm     77.5% 0.00 in 25 W/m2
18:44 80.1 °F 72.5 °F 29.83 in NNW 0.1 mph 1 mph 77.7% 0.00 in 19 W/m2
18:49 80 °F 72.4 °F 29.83 in Calm   1 mph 77.8% 0.00 in 18 W/m2
18:54 79.9 °F 72.5 °F 29.83 in Calm   1 mph 78% 0.00 in 12 W/m2
18:59 79.9 °F 72.4 °F 29.83 in Calm   1 mph 78% 0.00 in 11 W/m2
19:04 79.8 °F 72.3 °F 29.83 in Calm   1 mph 78% 0.00 in 9 W/m2
19:09 79.7 °F 72.2 °F 29.83 in Calm     78% 0.00 in 7 W/m2
19:14 79.6 °F 72.1 °F 29.83 in Calm     78% 0.00 in 7 W/m2
19:19 79.5 °F 72.1 °F 29.83 in Calm     78.3% 0.00 in 7 W/m2
19:24 79.4 °F 72.2 °F 29.83 in Calm     78.8% 0.00 in 0 W/m2
19:29 79.3 °F 72.2 °F 29.83 in Calm     79% 0.00 in 0 W/m2
19:34 79.2 °F 72.2 °F 29.83 in Calm     79% 0.00 in 0 W/m2
19:39 79.2 °F 71.9 °F 29.83 in Calm     78.5% 0.00 in 0 W/m2
19:44 79.1 °F 72 °F 29.84 in NE 0.6 mph 5 mph 79% 0.00 in 0 W/m2
19:49 79 °F 71.9 °F 29.83 in East 0.9 mph 5 mph 79% 0.00 in 0 W/m2
19:54 78.8 °F 71.8 °F 29.83 in East 1.4 mph 5 mph 79.1% 0.00 in 0 W/m2
19:59 78.6 °F 72 °F 29.83 in East 0.4 mph 5 mph 80% 0.00 in 0 W/m2
20:00 78.5 °F 71.8 °F 29.83 in Calm   5 mph 80% 0.00 in 0 W/m2
20:09 78.3 °F 72 °F 29.83 in East 0.6 mph 3 mph 81% 0.00 in 0 W/m2
20:14 78.1 °F 72.1 °F 29.83 in East 0.2 mph 3 mph 82% 0.00 in 0 W/m2
20:19 77.8 °F 72 °F 29.84 in East 1 mph 4 mph 82.3% 0.00 in 0 W/m2
20:24 77.6 °F 72.2 °F 29.84 in East 0.3 mph 4 mph 83.5% 0.00 in 0 W/m2
20:29 77.4 °F 72.2 °F 29.84 in East 0.2 mph 4 mph 84% 0.00 in 0 W/m2
20:34 77.2 °F 72.3 °F 29.84 in East 0.7 mph 5 mph 84.9% 0.00 in 0 W/m2
20:39 77 °F 72.2 °F 29.84 in ENE 0.7 mph 5 mph 85% 0.00 in 0 W/m2
20:44 76.8 °F 72.2 °F 29.84 in ENE 0.1 mph 5 mph 85.7% 0.00 in 0 W/m2
20:49 76.6 °F 72.1 °F 29.84 in Calm   5 mph 86% 0.00 in 0 W/m2
20:54 76.5 °F 72 °F 29.85 in Calm   5 mph 86% 0.00 in 0 W/m2
20:59 76.4 °F 71.9 °F 29.85 in Calm   5 mph 86.1% 0.00 in 0 W/m2
21:04 76.3 °F 72.1 °F 29.85 in Calm   5 mph 87% 0.00 in 0 W/m2
21:09 76.2 °F 72.1 °F 29.85 in Calm     87% 0.00 in 0 W/m2
21:14 76.1 °F 72 °F 29.85 in Calm     87% 0.00 in 0 W/m2
21:19 76 °F 71.9 °F 29.86 in Calm     87% 0.00 in 0 W/m2
21:24 76 °F 71.9 °F 29.86 in Calm     87% 0.00 in 0 W/m2
21:29 76 °F 71.9 °F 29.86 in Calm     87% 0.00 in 0 W/m2
21:34 76 °F 71.9 °F 29.86 in Calm     87% 0.00 in 0 W/m2
21:39 76 °F 72.2 °F 29.86 in Calm     87.9% 0.00 in 0 W/m2
21:44 76 °F 72.2 °F 29.86 in Calm     88% 0.00 in 0 W/m2
21:49 75.9 °F 72.1 °F 29.86 in Calm     88% 0.00 in 0 W/m2
21:54 75.9 °F 72.1 °F 29.86 in Calm     88% 0.00 in 0 W/m2
21:59 75.9 °F 72.1 °F 29.86 in Calm     88% 0.00 in 0 W/m2
22:04 75.9 °F 72.1 °F 29.86 in Calm     88% 0.00 in 0 W/m2
22:09 75.8 °F 72 °F 29.86 in Calm     88% 0.00 in 0 W/m2
22:14 75.8 °F 72 °F 29.86 in Calm     88% 0.00 in 0 W/m2
22:19 75.8 °F 72 °F 29.86 in Calm     88% 0.00 in 0 W/m2
22:24 75.8 °F 72 °F 29.86 in Calm     88% 0.00 in 0 W/m2
22:29 75.7 °F 71.9 °F 29.86 in Calm     88% 0.00 in 0 W/m2
22:34 75.7 °F 71.9 °F 29.86 in Calm     88% 0.00 in 0 W/m2
22:39 75.7 °F 71.9 °F 29.86 in Calm     88% 0.00 in 0 W/m2
22:44 75.7 °F 71.9 °F 29.86 in Calm     88% 0.00 in 0 W/m2
22:49 75.7 °F 71.9 °F 29.86 in Calm     88% 0.00 in 0 W/m2
22:54 75.7 °F 72.1 °F 29.86 in Calm     88.5% 0.00 in 0 W/m2
22:59 75.7 °F 72.2 °F 29.86 in Calm     89% 0.00 in 0 W/m2
23:04 75.7 °F 72.2 °F 29.86 in Calm     89% 0.00 in 0 W/m2
23:09 75.7 °F 72.2 °F 29.86 in Calm     89% 0.00 in 0 W/m2
23:14 75.7 °F 72.2 °F 29.86 in Calm     89% 0.00 in 0 W/m2
23:19 75.7 °F 72.2 °F 29.86 in Calm     89% 0.00 in 0 W/m2
23:24 75.7 °F 72.2 °F 29.86 in Calm     89% 0.00 in 0 W/m2
23:29 75.7 °F 72.2 °F 29.86 in Calm     89% 0.00 in 0 W/m2
23:34 75.6 °F 72.2 °F 29.86 in Calm     89% 0.00 in 0 W/m2
23:39 75.6 °F 72.3 °F 29.86 in Calm     89.4% 0.00 in 0 W/m2
23:44 75.6 °F 72.5 °F 29.86 in Calm     90% 0.00 in 0 W/m2
23:49 75.6 °F 72.5 °F 29.86 in Calm     90% 0.00 in 0 W/m2
23:54 75.6 °F 72.5 °F 29.86 in Calm     90% 0.00 in 0 W/m2
23:59 75.6 °F 72.4 °F 29.86 in Calm     90% 0.00 in 0 W/m2
Hartford County Weather
Compliments of Weather Underground - 4 mb